Time;durP1;ratioP1;P1;durP2;ratioP2;P2;SDS_P1;SDS_P2;PMS_P1;PMS_P2;Temp;Humidity;BMP_temperature;BMP_pressure;BME280_temperature;BME280_humidity;BME280_pressure;Samples;Min_cycle;Max_cycle;Signal;HPM_P1;HPM_P2
2022/06/15 00:02:13;;;;;;;3.28;2.53;;;12.10;99.90;;;;;;5059157;28;20155;-70
2022/06/15 00:04:39;;;;;;;6.72;3.20;;;12.10;99.90;;;;;;5067528;28;20067;-67
2022/06/15 00:07:05;;;;;;;6.03;3.33;;;12.10;99.90;;;;;;5056005;28;20052;-69
2022/06/15 00:09:31;;;;;;;5.00;3.38;;;12.00;99.90;;;;;;5078219;28;20039;-68
2022/06/15 00:11:58;;;;;;;7.63;3.35;;;12.10;99.90;;;;;;5076187;28;21503;-69
2022/06/15 00:14:27;;;;;;;6.45;3.53;;;12.00;99.90;;;;;;5068428;28;20045;-69
2022/06/15 00:16:54;;;;;;;5.18;3.17;;;12.10;99.90;;;;;;5072015;28;20154;-68
2022/06/15 00:19:21;;;;;;;2.50;1.70;;;12.10;99.90;;;;;;5050577;28;20427;-68
2022/06/15 00:21:47;;;;;;;3.10;1.77;;;12.00;99.90;;;;;;5039546;28;20489;-68
2022/06/15 00:24:13;;;;;;;4.10;2.85;;;11.90;99.90;;;;;;5071282;28;20357;-67
2022/06/15 00:26:39;;;;;;;3.88;2.78;;;11.80;99.90;;;;;;5072538;28;20048;-66
2022/06/15 00:29:05;;;;;;;3.40;2.60;;;11.80;99.90;;;;;;5050112;28;20051;-66
2022/06/15 00:31:31;;;;;;;7.07;2.80;;;11.80;99.90;;;;;;5072793;28;20146;-66
2022/06/15 00:33:57;;;;;;;180.38;8.02;;;11.70;99.90;;;;;;5070822;28;20131;-68
2022/06/15 00:36:24;;;;;;;10.70;2.85;;;11.60;99.90;;;;;;5048640;28;20045;-66
2022/06/15 00:38:51;;;;;;;4.90;3.08;;;11.60;99.90;;;;;;5062232;28;20109;-66
2022/06/15 00:41:20;;;;;;;5.28;3.75;;;11.60;99.90;;;;;;5071632;28;20477;-67
2022/06/15 00:43:50;;;;;;;6.10;3.70;;;11.60;99.90;;;;;;5050848;28;20115;-67
2022/06/15 00:46:27;;;;;;;6.70;3.50;;;11.60;99.90;;;;;;5072794;28;20044;-66
2022/06/15 00:49:00;;;;;;;7.47;4.00;;;11.60;99.90;;;;;;5069676;28;20490;-66
2022/06/15 00:51:26;;;;;;;6.45;4.05;;;11.70;99.90;;;;;;5072328;28;20043;-68
2022/06/15 00:53:55;;;;;;;9.68;4.43;;;11.60;99.90;;;;;;5074596;28;20060;-66
2022/06/15 00:56:21;;;;;;;5.25;4.00;;;11.60;99.90;;;;;;5073887;28;20194;-66
2022/06/15 00:58:51;;;;;;;5.82;3.80;;;11.60;99.90;;;;;;5023118;28;20055;-67
2022/06/15 01:01:17;;;;;;;7.30;4.50;;;11.60;99.90;;;;;;5079770;28;20131;-68
2022/06/15 01:03:49;;;;;;;6.88;4.30;;;11.50;99.90;;;;;;5079493;28;20791;-67
2022/06/15 01:06:35;;;;;;;7.65;4.60;;;11.50;99.90;;;;;;5069130;28;20392;-66
2022/06/15 01:09:18;;;;;;;8.52;4.50;;;11.50;99.90;;;;;;5073516;28;20036;-67
2022/06/15 01:12:14;;;;;;;7.40;4.18;;;11.50;99.90;;;;;;5076181;28;20052;-70
2022/06/15 01:15:08;;;;;;;6.18;3.63;;;11.50;99.90;;;;;;5068035;28;20115;-66
2022/06/15 01:17:49;;;;;;;8.48;4.80;;;11.40;99.90;;;;;;5073549;28;20040;-67
2022/06/15 01:20:24;;;;;;;5.43;4.00;;;11.40;99.90;;;;;;5071892;28;20135;-67
2022/06/15 01:23:27;;;;;;;6.93;4.70;;;11.40;99.90;;;;;;5074873;28;20083;-66
2022/06/15 01:26:28;;;;;;;6.72;4.30;;;11.40;99.90;;;;;;5057176;28;20097;-66
2022/06/15 01:29:04;;;;;;;5.57;4.60;;;11.30;99.90;;;;;;5074352;28;20086;-68
2022/06/15 01:31:41;;;;;;;4.57;3.63;;;11.30;99.90;;;;;;5073701;28;20040;-66
2022/06/15 01:34:26;;;;;;;6.68;4.03;;;11.20;99.90;;;;;;5073234;28;20108;-67
2022/06/15 01:37:26;;;;;;;7.55;3.85;;;11.20;99.90;;;;;;5071756;28;20044;-67
2022/06/15 01:40:02;;;;;;;5.57;3.70;;;11.20;99.90;;;;;;5062331;28;20055;-67
2022/06/15 01:42:38;;;;;;;9.23;4.75;;;11.20;99.90;;;;;;5054932;28;20055;-66
2022/06/15 01:45:16;;;;;;;8.13;4.45;;;11.20;99.90;;;;;;5068419;28;20630;-66
2022/06/15 01:47:44;;;;;;;5.95;3.97;;;11.20;99.90;;;;;;5068417;28;20036;-67
2022/06/15 01:50:17;;;;;;;5.32;3.88;;;11.20;99.90;;;;;;5054764;28;20483;-66
2022/06/15 01:52:51;;;;;;;5.68;3.78;;;11.20;99.90;;;;;;5073808;28;20039;-69
2022/06/15 01:55:30;;;;;;;4.28;2.08;;;11.10;99.90;;;;;;5071716;28;20067;-69
2022/06/15 01:58:07;;;;;;;4.32;2.40;;;11.10;99.90;;;;;;5068352;28;20040;-67
2022/06/15 02:00:33;;;;;;;2.97;2.25;;;11.00;99.90;;;;;;5070375;28;20040;-66
2022/06/15 02:03:09;;;;;;;4.70;3.15;;;11.00;99.90;;;;;;5069006;28;20052;-68
2022/06/15 02:05:56;;;;;;;6.65;3.78;;;11.00;99.90;;;;;;5052026;28;20044;-66
2022/06/15 02:08:37;;;;;;;6.90;3.60;;;10.90;99.90;;;;;;5066998;28;20736;-66
2022/06/15 02:11:14;;;;;;;5.93;4.03;;;10.90;99.90;;;;;;5067539;28;20052;-66
2022/06/15 02:14:10;;;;;;;10.57;5.03;;;10.90;99.90;;;;;;5067655;28;20387;-67
2022/06/15 02:16:45;;;;;;;6.72;4.07;;;10.90;99.90;;;;;;5068280;28;20131;-66
2022/06/15 02:19:15;;;;;;;9.48;4.60;;;10.90;99.90;;;;;;5069147;28;20042;-66
2022/06/15 02:21:43;;;;;;;8.35;5.03;;;10.90;99.90;;;;;;5068774;28;20051;-67
2022/06/15 02:24:13;;;;;;;28.27;3.97;;;10.90;99.90;;;;;;5067919;28;20468;-69
2022/06/15 02:26:39;;;;;;;11.10;5.20;;;10.80;99.90;;;;;;5051467;28;20040;-68
2022/06/15 02:29:17;;;;;;;7.78;4.80;;;10.80;99.90;;;;;;5069081;28;20036;-66
2022/06/15 02:31:43;;;;;;;8.10;4.78;;;10.80;99.90;;;;;;5066851;28;20502;-67
2022/06/15 02:34:10;;;;;;;9.90;4.40;;;10.80;99.90;;;;;;5073439;28;20040;-66
2022/06/15 02:36:36;;;;;;;7.28;4.20;;;10.80;99.90;;;;;;5047920;28;20036;-66
2022/06/15 02:39:05;;;;;;;9.75;5.50;;;10.80;99.90;;;;;;5068345;28;20392;-66
2022/06/15 02:41:32;;;;;;;9.10;4.75;;;10.80;99.90;;;;;;5048117;28;20119;-67
2022/06/15 02:44:01;;;;;;;8.48;4.30;;;10.80;99.90;;;;;;5068321;28;20078;-66
2022/06/15 02:46:32;;;;;;;4.95;2.95;;;10.80;99.90;;;;;;5065299;28;20055;-67
2022/06/15 02:48:58;;;;;;;3.20;2.73;;;10.70;99.90;;;;;;5067532;28;20554;-66
2022/06/15 02:51:47;;;;;;;6.45;4.15;;;10.70;99.90;;;;;;5068611;28;20496;-68
2022/06/15 02:54:32;;;;;;;8.65;4.00;;;10.70;99.90;;;;;;5067066;28;20492;-66
2022/06/15 02:56:58;;;;;;;9.32;4.40;;;10.70;99.90;;;;;;5067712;28;20412;-66
2022/06/15 02:59:24;;;;;;;5.75;4.38;;;10.70;99.90;;;;;;5049710;28;20083;-70
2022/06/15 03:01:50;;;;;;;6.07;3.78;;;10.60;99.90;;;;;;5067387;28;20052;-67
2022/06/15 03:04:17;;;;;;;3.90;3.15;;;10.60;99.90;;;;;;5035290;28;20072;-66
2022/06/15 03:06:43;;;;;;;4.25;3.17;;;10.60;99.90;;;;;;5050329;28;20510;-66
2022/06/15 03:09:09;;;;;;;7.30;4.40;;;10.60;99.90;;;;;;5066306;28;20040;-66
2022/06/15 03:11:39;;;;;;;9.02;5.80;;;10.60;99.90;;;;;;5066866;28;20473;-66
2022/06/15 03:14:05;;;;;;;10.27;5.78;;;10.60;99.90;;;;;;5066168;28;20634;-67
2022/06/15 03:16:31;;;;;;;12.95;7.18;;;10.60;99.90;;;;;;5052797;28;20096;-67
2022/06/15 03:18:57;;;;;;;9.40;6.40;;;10.60;99.90;;;;;;5048921;28;20468;-66
2022/06/15 03:21:24;;;;;;;12.80;6.85;;;10.60;99.90;;;;;;5067413;28;20059;-68
2022/06/15 03:23:50;;;;;;;13.85;6.68;;;10.60;99.90;;;;;;5066904;28;20044;-66
2022/06/15 03:26:16;;;;;;;12.70;7.18;;;10.70;99.90;;;;;;5064973;28;20082;-67
2022/06/15 03:28:43;;;;;;;9.70;6.65;;;10.70;99.90;;;;;;5067797;28;20173;-66
2022/06/15 03:31:09;;;;;;;8.13;6.00;;;10.70;99.90;;;;;;5068005;28;20028;-69
2022/06/15 03:33:35;;;;;;;12.13;6.72;;;10.70;99.90;;;;;;5068856;28;20062;-66
2022/06/15 03:36:03;;;;;;;13.32;6.65;;;10.70;99.90;;;;;;5053296;28;20090;-67
2022/06/15 03:38:30;;;;;;;8.05;6.30;;;10.80;99.90;;;;;;5053544;28;20503;-67
2022/06/15 03:40:56;;;;;;;9.25;6.65;;;10.80;99.90;;;;;;5053566;28;20565;-66
2022/06/15 03:43:22;;;;;;;15.38;6.20;;;10.80;99.90;;;;;;5054706;28;20042;-67
2022/06/15 03:45:49;;;;;;;11.93;6.40;;;10.80;99.90;;;;;;5054773;28;20093;-69
2022/06/15 03:48:15;;;;;;;10.80;6.53;;;10.90;99.90;;;;;;5054230;28;20071;-68
2022/06/15 03:50:41;;;;;;;12.60;6.18;;;11.00;99.90;;;;;;5053942;28;20051;-68
2022/06/15 03:53:08;;;;;;;9.43;6.40;;;11.10;99.90;;;;;;5076519;28;20036;-69
2022/06/15 03:55:35;;;;;;;11.60;6.80;;;11.20;99.90;;;;;;5059678;28;20134;-67
2022/06/15 03:58:01;;;;;;;11.25;6.55;;;11.20;99.90;;;;;;5032139;28;20123;-67
2022/06/15 04:00:30;;;;;;;8.43;5.95;;;11.30;99.90;;;;;;5057809;28;20044;-67
2022/06/15 04:02:55;;;;;;;10.63;6.40;;;11.40;99.90;;;;;;5070368;28;20605;-68
2022/06/15 04:05:27;;;;;;;14.50;6.55;;;11.50;99.90;;;;;;5071854;28;20032;-68
2022/06/15 04:10:37;;;;;;;12.95;6.30;;;11.70;99.90;;;;;;5076043;28;20344;-67
2022/06/15 04:13:04;;;;;;;9.48;5.57;;;11.80;99.90;;;;;;5052430;28;20047;-67
2022/06/15 04:15:31;;;;;;;8.55;5.28;;;11.90;99.90;;;;;;5070930;28;20078;-67
2022/06/15 04:17:57;;;;;;;12.20;6.03;;;12.10;99.90;;;;;;5068609;28;20044;-67
2022/06/15 04:20:40;;;;;;;9.80;5.03;;;12.20;99.90;;;;;;5069079;28;20083;-68
2022/06/15 04:23:09;;;;;;;10.48;5.43;;;12.30;99.90;;;;;;5069089;28;20428;-69
2022/06/15 04:25:41;;;;;;;7.68;4.90;;;12.50;99.90;;;;;;5050237;28;20047;-67
2022/06/15 04:28:08;;;;;;;8.18;4.50;;;12.50;99.90;;;;;;5068227;28;20040;-69
2022/06/15 04:30:34;;;;;;;10.40;5.10;;;12.70;99.90;;;;;;5068990;28;20058;-67
2022/06/15 04:33:01;;;;;;;9.80;4.50;;;12.80;99.90;;;;;;5069145;28;20063;-71
2022/06/15 04:35:27;;;;;;;9.68;5.25;;;13.00;99.90;;;;;;5067463;28;20203;-67
2022/06/15 04:37:53;;;;;;;6.75;4.75;;;13.10;99.90;;;;;;5052447;28;20056;-69
2022/06/15 04:40:19;;;;;;;6.80;4.60;;;13.10;99.90;;;;;;5053775;28;20145;-68
2022/06/15 04:42:45;;;;;;;8.80;4.95;;;13.30;99.90;;;;;;5068825;28;20060;-67
2022/06/15 04:45:13;;;;;;;10.48;4.97;;;13.40;99.90;;;;;;5053805;28;20059;-67
2022/06/15 04:47:39;;;;;;;8.70;4.45;;;13.50;99.90;;;;;;5070340;28;20089;-67
2022/06/15 04:50:07;;;;;;;8.38;5.20;;;13.60;99.90;;;;;;5067406;28;20044;-67
2022/06/15 04:52:33;;;;;;;9.02;4.70;;;13.60;99.90;;;;;;5036524;28;20051;-67
2022/06/15 04:54:59;;;;;;;6.03;4.25;;;13.70;99.90;;;;;;5068998;28;20040;-67
2022/06/15 04:57:25;;;;;;;8.95;4.70;;;13.80;99.90;;;;;;5069951;28;20048;-67
2022/06/15 04:59:51;;;;;;;8.27;4.88;;;14.00;99.90;;;;;;5070034;28;20094;-69
2022/06/15 05:02:17;;;;;;;9.05;4.05;;;14.10;99.90;;;;;;5070543;28;20032;-67
2022/06/15 05:04:43;;;;;;;6.97;4.00;;;14.20;99.90;;;;;;5069603;28;20048;-68
2022/06/15 05:07:09;;;;;;;9.43;3.90;;;14.30;99.90;;;;;;5036209;28;20476;-67
2022/06/15 05:09:35;;;;;;;8.18;3.78;;;14.40;99.90;;;;;;5052253;28;20048;-69
2022/06/15 05:12:01;;;;;;;8.57;4.18;;;14.50;99.90;;;;;;5050685;28;20182;-68
2022/06/15 05:14:27;;;;;;;6.53;3.90;;;14.60;99.90;;;;;;5068865;28;20127;-67
2022/06/15 05:16:53;;;;;;;6.78;4.03;;;14.80;99.90;;;;;;5032128;28;20047;-67
2022/06/15 05:19:19;;;;;;;8.80;4.10;;;14.90;99.90;;;;;;5050951;28;20052;-70
2022/06/15 05:21:48;;;;;;;5.82;3.97;;;15.00;99.90;;;;;;5052204;28;20136;-70
2022/06/15 05:24:14;;;;;;;8.48;3.67;;;15.10;99.90;;;;;;5068805;28;20085;-69
2022/06/15 05:26:40;;;;;;;6.88;3.60;;;15.20;99.90;;;;;;5068668;28;20516;-67
2022/06/15 05:29:06;;;;;;;7.32;3.60;;;15.30;99.90;;;;;;5070941;28;20042;-67
2022/06/15 05:31:34;;;;;;;7.22;3.65;;;15.30;99.90;;;;;;5044947;28;20058;-68
2022/06/15 05:33:59;;;;;;;7.45;3.67;;;15.40;99.90;;;;;;5067175;28;20032;-69
2022/06/15 05:36:35;;;;;;;6.10;3.03;;;15.50;99.90;;;;;;5052319;28;20147;-67
2022/06/15 05:39:03;;;;;;;7.13;3.33;;;15.60;99.90;;;;;;5068524;28;20062;-67
2022/06/15 05:41:29;;;;;;;5.47;3.22;;;15.70;99.90;;;;;;5068585;28;20389;-67
2022/06/15 05:43:56;;;;;;;4.32;3.30;;;15.80;99.90;;;;;;5034259;28;20077;-70
2022/06/15 05:46:24;;;;;;;6.32;2.72;;;15.90;99.90;;;;;;5052201;28;20054;-67
2022/06/15 05:48:51;;;;;;;6.25;2.70;;;16.50;99.90;;;;;;5068789;28;20039;-67
2022/06/15 05:51:17;;;;;;;6.88;2.70;;;16.00;99.90;;;;;;5052432;28;20044;-67
2022/06/15 05:53:43;;;;;;;5.40;2.70;;;16.00;99.90;;;;;;5068971;28;20036;-67
2022/06/15 05:56:09;;;;;;;7.30;2.80;;;16.10;99.90;;;;;;5057165;28;20056;-68
2022/06/15 05:58:34;;;;;;;4.93;2.72;;;16.20;99.90;;;;;;5054744;28;20047;-72
2022/06/15 06:01:09;;;;;;;7.60;2.80;;;16.20;99.90;;;;;;5056531;28;20079;-68
2022/06/15 06:03:35;;;;;;;7.35;3.90;;;16.30;99.90;;;;;;5045586;28;20045;-69
2022/06/15 06:06:01;;;;;;;7.60;4.65;;;16.30;99.90;;;;;;5044273;28;20037;-70
2022/06/15 06:08:27;;;;;;;10.00;5.20;;;16.30;99.90;;;;;;5055005;28;20115;-69
2022/06/15 06:10:53;;;;;;;9.35;5.30;;;16.30;99.90;;;;;;5020255;28;20050;-68
2022/06/15 06:13:19;;;;;;;9.63;5.00;;;16.40;99.90;;;;;;5051898;28;20045;-69
2022/06/15 06:15:45;;;;;;;10.90;5.82;;;16.40;99.90;;;;;;5040899;28;20052;-69
2022/06/15 06:18:11;;;;;;;11.05;5.55;;;16.50;99.90;;;;;;5033497;28;20048;-71
2022/06/15 06:20:39;;;;;;;9.60;5.28;;;16.60;99.90;;;;;;5058661;28;20064;-69
2022/06/15 06:23:05;;;;;;;14.20;4.97;;;16.70;99.90;;;;;;5057824;28;20049;-69
2022/06/15 06:25:31;;;;;;;9.95;4.25;;;16.80;99.90;;;;;;5033469;28;20128;-68
2022/06/15 06:27:57;;;;;;;7.53;4.30;;;17.00;99.90;;;;;;5049285;28;20106;-69
2022/06/15 06:30:23;;;;;;;8.98;3.92;;;17.10;99.90;;;;;;5016848;28;20569;-68
2022/06/15 06:32:50;;;;;;;8.02;4.50;;;17.30;99.90;;;;;;5047220;28;20067;-68
2022/06/15 06:35:16;;;;;;;6.30;3.70;;;17.40;99.90;;;;;;5049488;28;20036;-68
2022/06/15 06:37:45;;;;;;;7.35;3.75;;;17.60;99.90;;;;;;5048140;28;20373;-68
2022/06/15 06:40:16;;;;;;;6.57;3.50;;;17.70;99.90;;;;;;5050212;28;20049;-68
2022/06/15 06:42:42;;;;;;;6.47;2.95;;;17.80;99.90;;;;;;5050542;28;20048;-70
2022/06/15 06:45:11;;;;;;;6.57;3.38;;;17.90;99.90;;;;;;5052476;28;20036;-70
2022/06/15 06:47:37;;;;;;;7.47;3.20;;;18.00;99.90;;;;;;5034264;28;20052;-70
2022/06/15 06:50:05;;;;;;;6.47;3.30;;;18.10;99.90;;;;;;5053727;28;20080;-69
2022/06/15 06:52:31;;;;;;;7.22;3.15;;;18.30;99.90;;;;;;5050567;28;20094;-70
2022/06/15 06:54:58;;;;;;;5.63;3.25;;;18.30;99.90;;;;;;5041268;28;20056;-69
2022/06/15 06:57:24;;;;;;;5.65;3.28;;;18.40;99.90;;;;;;5067244;28;20055;-68
2022/06/15 06:59:50;;;;;;;6.53;3.00;;;18.40;99.90;;;;;;5051289;28;20040;-70
2022/06/15 07:02:16;;;;;;;6.60;3.00;;;18.50;99.90;;;;;;5064331;28;20105;-68
2022/06/15 07:04:42;;;;;;;7.32;3.30;;;18.80;99.90;;;;;;5045689;28;20033;-67
2022/06/15 07:07:09;;;;;;;6.43;2.88;;;18.80;99.90;;;;;;5070547;28;20173;-68
2022/06/15 07:09:35;;;;;;;6.25;3.20;;;18.90;99.90;;;;;;5054818;28;20063;-69
2022/06/15 07:12:03;;;;;;;8.98;3.17;;;18.90;99.90;;;;;;5089517;28;20043;-70
2022/06/15 07:14:29;;;;;;;4.10;2.78;;;18.90;99.90;;;;;;5072978;28;20048;-70
2022/06/15 07:16:55;;;;;;;5.85;2.92;;;18.90;99.90;;;;;;5073274;28;20500;-70
2022/06/15 07:19:21;;;;;;;8.60;3.10;;;18.90;99.90;;;;;;5054124;28;20052;-71
2022/06/15 07:21:48;;;;;;;4.57;2.80;;;18.80;99.90;;;;;;5073419;28;20135;-67
2022/06/15 07:24:14;;;;;;;7.15;2.35;;;18.90;99.90;;;;;;5072734;28;20511;-67
2022/06/15 07:26:47;;;;;;;7.75;2.47;;;19.00;99.90;;;;;;5069712;28;20101;-66
2022/06/15 07:29:17;;;;;;;5.07;2.92;;;19.20;99.90;;;;;;5066458;28;20036;-67
2022/06/15 07:31:46;;;;;;;4.45;2.78;;;19.60;99.90;;;;;;5073581;28;20403;-67
2022/06/15 07:34:13;;;;;;;8.85;3.42;;;19.80;99.90;;;;;;5057135;28;20052;-66
2022/06/15 07:36:46;;;;;;;8.77;3.63;;;19.80;99.90;;;;;;5072542;28;20036;-67
2022/06/15 07:39:14;;;;;;;6.63;3.55;;;19.90;99.90;;;;;;5069262;28;20033;-67
2022/06/15 07:41:41;;;;;;;4.95;3.05;;;19.80;99.90;;;;;;5066908;28;20514;-66
2022/06/15 07:44:07;;;;;;;6.43;2.90;;;19.90;99.90;;;;;;5052742;28;20131;-72
2022/06/15 07:46:33;;;;;;;7.07;2.65;;;19.80;99.90;;;;;;5055467;28;20131;-73
2022/06/15 07:51:49;;;;;;;7.40;3.05;;;19.90;99.90;;;;;;5068370;28;20040;-73
2022/06/15 07:54:17;;;;;;;5.45;2.55;;;19.90;99.90;;;;;;5074811;28;20152;-74
2022/06/15 07:56:44;;;;;;;3.25;2.47;;;20.00;99.90;;;;;;5068214;28;20047;-73
2022/06/15 07:59:11;;;;;;;4.82;2.38;;;20.20;99.90;;;;;;5074137;28;20059;-73
2022/06/15 08:01:38;;;;;;;6.30;2.45;;;20.30;99.90;;;;;;5071919;28;20043;-73
2022/06/15 08:04:04;;;;;;;5.55;2.50;;;20.60;99.90;;;;;;5059241;28;20071;-73
2022/06/15 08:06:31;;;;;;;6.00;2.72;;;20.90;99.90;;;;;;5074190;28;20491;-72
2022/06/15 08:08:57;;;;;;;4.97;2.70;;;21.00;99.90;;;;;;5058252;28;20087;-73
2022/06/15 08:11:24;;;;;;;5.95;2.38;;;21.20;99.90;;;;;;5071987;28;21065;-73
2022/06/15 08:13:50;;;;;;;4.80;2.42;;;21.30;99.90;;;;;;5075153;28;20040;-72
2022/06/15 08:16:19;;;;;;;6.20;2.55;;;21.30;99.90;;;;;;5073037;28;20048;-75
2022/06/15 08:18:49;;;;;;;6.30;2.40;;;21.20;99.90;;;;;;5057040;28;20047;-72
2022/06/15 08:21:25;;;;;;;6.32;2.90;;;21.10;99.90;;;;;;5054998;28;20413;-73
2022/06/15 08:23:54;;;;;;;4.68;2.67;;;21.10;99.90;;;;;;5055128;28;20502;-72
2022/06/15 08:26:24;;;;;;;6.53;3.00;;;21.10;99.90;;;;;;5070620;28;20040;-73
2022/06/15 08:28:54;;;;;;;5.72;2.78;;;21.20;99.90;;;;;;5051289;28;20476;-74
2022/06/15 08:31:20;;;;;;;6.18;3.22;;;21.20;99.90;;;;;;5086911;28;20046;-74
2022/06/15 08:33:46;;;;;;;4.90;3.10;;;21.20;99.90;;;;;;5074725;28;20048;-74
2022/06/15 08:36:13;;;;;;;5.70;2.78;;;21.30;99.90;;;;;;5069597;28;20495;-74
2022/06/15 08:38:40;;;;;;;6.22;3.65;;;21.40;99.90;;;;;;5069642;28;20032;-74
2022/06/15 08:41:27;;;;;;;7.57;3.33;;;21.60;99.90;;;;;;5053468;28;20094;-73
2022/06/15 08:43:59;;;;;;;5.18;2.83;;;21.50;99.90;;;;;;5070527;28;20480;-74
2022/06/15 08:47:06;;;;;;;5.43;3.30;;;21.50;99.90;;;;;;5049755;28;20631;-83
2022/06/15 08:49:56;;;;;;;5.05;3.50;;;21.30;99.90;;;;;;5071446;28;20054;-81
2022/06/15 08:52:39;;;;;;;4.75;2.85;;;21.20;99.90;;;;;;5072062;28;20035;-75
2022/06/15 08:55:21;;;;;;;5.25;3.30;;;21.40;99.90;;;;;;5055317;28;20052;-74
2022/06/15 08:57:55;;;;;;;5.15;3.10;;;21.60;99.90;;;;;;5071560;28;20128;-72
2022/06/15 09:00:24;;;;;;;5.60;3.08;;;21.60;99.90;;;;;;5052290;28;20040;-72
2022/06/15 09:03:21;;;;;;;4.93;2.55;;;21.80;99.90;;;;;;5053419;28;20071;-72
2022/06/15 09:06:06;;;;;;;7.22;3.45;;;22.10;99.90;;;;;;5059830;28;20481;-72
2022/06/15 09:08:32;;;;;;;8.02;3.42;;;22.30;99.90;;;;;;5070779;28;20622;-73
2022/06/15 09:11:04;;;;;;;5.07;2.63;;;22.40;99.90;;;;;;5054421;28;20052;-72
2022/06/15 09:13:54;;;;;;;4.57;2.00;;;22.40;98.00;;;;;;5073228;28;20048;-69
2022/06/15 09:16:53;;;;;;;6.38;3.50;;;22.30;96.60;;;;;;5068669;28;20420;-71
2022/06/15 09:19:32;;;;;;;8.98;5.13;;;22.30;95.90;;;;;;5053665;28;20067;-72
2022/06/15 09:22:04;;;;;;;7.38;4.45;;;22.30;97.20;;;;;;5069821;28;20062;-71
2022/06/15 09:24:48;;;;;;;8.32;4.30;;;22.50;98.30;;;;;;5057794;28;20055;-71
2022/06/15 09:27:33;;;;;;;8.52;5.55;;;22.60;96.80;;;;;;5071281;28;20051;-71
2022/06/15 09:30:01;;;;;;;6.85;4.60;;;22.40;96.70;;;;;;5074261;28;20541;-75
2022/06/15 09:32:35;;;;;;;6.93;3.00;;;22.50;97.40;;;;;;5072991;28;20479;-71
2022/06/15 09:35:18;;;;;;;6.57;2.50;;;22.30;93.50;;;;;;5069574;28;20036;-75
2022/06/15 09:37:53;;;;;;;8.43;2.50;;;22.50;96.50;;;;;;5052192;28;20036;-75
2022/06/15 09:40:20;;;;;;;5.47;2.40;;;22.70;95.90;;;;;;5053414;28;20052;-74
2022/06/15 09:43:01;;;;;;;3.30;1.88;;;23.00;95.30;;;;;;5066459;28;20105;-73
2022/06/15 09:45:53;;;;;;;5.15;2.22;;;22.80;90.70;;;;;;5069024;28;20043;-72
2022/06/15 09:48:22;;;;;;;6.20;2.20;;;23.00;91.90;;;;;;5064980;28;20040;-72
2022/06/15 09:51:32;;;;;;;5.25;2.50;;;23.40;90.90;;;;;;5057429;28;20039;-73
2022/06/15 09:54:04;;;;;;;4.32;2.03;;;23.60;85.00;;;;;;5050510;28;20408;-75
2022/06/15 09:56:30;;;;;;;4.43;2.10;;;23.80;85.60;;;;;;5070703;28;20098;-71
2022/06/15 09:59:07;;;;;;;4.25;1.90;;;23.90;84.30;;;;;;5070942;28;20085;-72
2022/06/15 10:01:36;;;;;;;3.55;1.90;;;24.00;77.60;;;;;;5068712;28;20044;-72
2022/06/15 10:04:05;;;;;;;3.17;2.03;;;24.10;78.50;;;;;;5074430;28;20071;-72
2022/06/15 10:06:44;;;;;;;5.13;1.98;;;24.30;77.70;;;;;;5070484;28;20048;-72
2022/06/15 10:09:15;;;;;;;5.47;1.67;;;24.30;72.70;;;;;;5071321;28;20043;-74
2022/06/15 10:11:48;;;;;;;4.10;1.88;;;24.30;73.20;;;;;;5073115;28;20040;-74
2022/06/15 10:14:45;;;;;;;5.85;2.08;;;24.50;69.00;;;;;;5072676;28;20043;-72
2022/06/15 10:17:30;;;;;;;3.97;1.58;;;24.40;67.70;;;;;;5058336;28;20079;-73
2022/06/15 10:19:58;;;;;;;5.93;1.92;;;24.60;63.70;;;;;;5050790;28;20498;-75
2022/06/15 10:22:36;;;;;;;3.95;2.33;;;24.40;66.30;;;;;;5064933;28;20051;-75
2022/06/15 10:25:04;;;;;;;5.50;2.00;;;24.50;66.10;;;;;;5083175;28;20123;-74
2022/06/15 10:27:37;;;;;;;4.43;2.47;;;24.60;65.10;;;;;;5067511;28;20108;-81
2022/06/15 10:30:12;;;;;;;3.08;2.15;;;24.80;63.80;;;;;;5066302;28;20049;-74
2022/06/15 10:32:59;;;;;;;2.95;2.05;;;24.80;59.20;;;;;;5067041;28;20044;-72
2022/06/15 10:35:27;;;;;;;2.67;2.10;;;24.80;59.30;;;;;;5083011;28;20182;-76
2022/06/15 10:38:00;;;;;;;4.25;2.60;;;24.90;63.50;;;;;;5048668;28;20076;-71
2022/06/15 10:40:30;;;;;;;4.53;2.50;;;25.10;63.50;;;;;;5049487;28;20443;-74
2022/06/15 10:43:23;;;;;;;3.30;2.25;;;25.20;64.30;;;;;;5065891;28;20047;-72
2022/06/15 10:46:05;;;;;;;5.13;2.60;;;25.20;65.30;;;;;;5064109;28;20047;-76
2022/06/15 10:48:36;;;;;;;4.85;2.60;;;25.40;62.70;;;;;;5067991;28;20489;-77
2022/06/15 10:51:09;;;;;;;3.55;2.80;;;25.50;64.60;;;;;;5067393;28;20075;-69
2022/06/15 10:53:48;;;;;;;4.65;2.50;;;25.50;59.70;;;;;;5072926;28;20539;-70
2022/06/15 11:02:30;;;;;;;5.32;2.40;;;25.80;62.40;;;;;;5084856;28;20063;-70
2022/06/15 11:05:06;;;;;;;5.53;2.50;;;26.10;60.20;;;;;;5050809;28;20065;-69
2022/06/15 11:07:40;;;;;;;3.47;2.50;;;26.10;59.30;;;;;;5067525;28;20131;-69
2022/06/15 11:10:31;;;;;;;6.97;3.10;;;26.10;59.10;;;;;;5067604;28;20113;-70
2022/06/15 11:13:23;;;;;;;4.70;2.95;;;25.90;59.20;;;;;;5051015;28;20052;-71
2022/06/15 11:18:39;;;;;;;2.95;2.60;;;25.20;59.60;;;;;;5084319;28;20108;-70
2022/06/15 11:21:13;;;;;;;6.13;3.08;;;24.90;59.20;;;;;;5066915;28;20057;-70
2022/06/15 11:24:11;;;;;;;4.90;3.10;;;24.70;58.00;;;;;;5067862;28;20056;-72
2022/06/15 11:26:52;;;;;;;3.30;2.70;;;24.40;60.10;;;;;;5068765;28;20464;-69
2022/06/15 11:29:41;;;;;;;5.90;3.17;;;24.10;62.30;;;;;;5067550;28;20066;-69
2022/06/15 11:32:38;;;;;;;6.03;3.58;;;24.50;62.40;;;;;;5067020;28;20047;-69
2022/06/15 11:35:13;;;;;;;5.05;3.30;;;24.80;59.80;;;;;;5067001;28;20040;-69
2022/06/15 11:38:13;;;;;;;5.70;3.58;;;24.90;59.00;;;;;;5065986;28;20396;-70
2022/06/15 11:41:01;;;;;;;4.75;3.40;;;24.60;58.90;;;;;;5051866;28;20036;-69
2022/06/15 11:43:32;;;;;;;5.80;3.50;;;24.20;59.40;;;;;;5065257;28;20074;-68
2022/06/15 11:46:28;;;;;;;6.57;3.80;;;23.90;60.10;;;;;;5067173;28;20403;-69
2022/06/15 11:49:25;;;;;;;5.35;4.40;;;23.50;59.60;;;;;;5050828;28;20040;-69
2022/06/15 11:52:03;;;;;;;5.82;3.90;;;23.70;61.50;;;;;;5067276;28;20556;-69
2022/06/15 11:54:54;;;;;;;4.70;4.20;;;24.10;60.00;;;;;;5066664;28;20068;-69
2022/06/15 11:57:35;;;;;;;8.05;4.10;;;24.00;59.30;;;;;;5060433;28;20132;-69
2022/06/15 12:00:13;;;;;;;6.45;3.10;;;24.00;62.00;;;;;;5057683;28;20051;-69
2022/06/15 12:03:20;;;;;;;5.53;3.00;;;23.80;60.20;;;;;;5044940;28;20057;-69
2022/06/15 12:05:50;;;;;;;5.65;3.47;;;23.80;61.10;;;;;;5028712;28;20037;-69
2022/06/15 12:08:21;;;;;;;7.70;3.65;;;23.70;62.70;;;;;;5073057;28;20047;-69
2022/06/15 12:14:26;;;;;;;6.25;3.20;;;24.40;66.70;;;;;;5049977;28;20041;-69
2022/06/15 12:17:07;;;;;;;4.40;2.95;;;24.40;65.40;;;;;;5018629;28;20049;-69
2022/06/15 12:19:50;;;;;;;5.35;3.45;;;24.20;65.30;;;;;;5034947;28;20044;-69
2022/06/15 12:22:24;;;;;;;6.35;3.30;;;23.90;64.70;;;;;;5056309;28;20461;-69
2022/06/15 12:25:04;;;;;;;9.25;3.47;;;23.70;65.20;;;;;;5058053;28;20045;-69
2022/06/15 12:27:52;;;;;;;5.05;3.00;;;23.50;65.30;;;;;;5058464;28;20094;-69
2022/06/15 12:30:21;;;;;;;6.15;2.92;;;23.40;66.10;;;;;;5051263;28;20036;-69
2022/06/15 12:32:55;;;;;;;4.38;3.13;;;23.70;67.30;;;;;;5048703;28;20037;-69
2022/06/15 12:35:32;;;;;;;5.60;3.05;;;24.10;67.80;;;;;;5043130;28;20146;-69
2022/06/15 12:38:16;;;;;;;4.93;3.03;;;24.70;67.40;;;;;;5049940;28;20488;-70
2022/06/15 12:40:49;;;;;;;6.68;2.90;;;25.10;67.40;;;;;;5056717;28;20040;-70
2022/06/15 12:43:33;;;;;;;6.10;2.92;;;25.30;64.40;;;;;;5060837;28;20056;-70
2022/06/15 12:46:08;;;;;;;5.00;2.90;;;25.60;66.30;;;;;;5057606;28;20489;-70
2022/06/15 12:48:42;;;;;;;4.47;2.70;;;25.80;64.60;;;;;;5054886;28;20040;-69
2022/06/15 12:51:11;;;;;;;5.55;2.75;;;26.00;64.90;;;;;;5042878;28;20139;-68
2022/06/15 12:53:56;;;;;;;5.47;3.10;;;26.20;64.70;;;;;;5051376;28;20037;-66
2022/06/15 12:56:37;;;;;;;5.80;3.05;;;26.40;61.40;;;;;;5050658;28;21199;-67
2022/06/15 12:59:19;;;;;;;;;;;26.90;60.70;;;;;;5062223;28;20033;-67
2022/06/15 13:02:07;;;;;;;4.68;2.60;;;27.10;57.50;;;;;;5047689;28;19933;-67
2022/06/15 13:04:55;;;;;;;4.22;2.65;;;27.30;58.40;;;;;;5077835;28;20037;-70
2022/06/15 13:07:31;;;;;;;5.20;2.70;;;27.50;57.90;;;;;;5040526;28;20101;-68
2022/06/15 13:10:18;;;;;;;4.68;2.58;;;27.60;58.40;;;;;;5047929;28;20037;-67
2022/06/15 13:13:01;;;;;;;3.35;2.50;;;28.00;56.60;;;;;;5055404;28;20066;-68
2022/06/15 13:15:56;;;;;;;4.75;2.90;;;28.30;58.70;;;;;;5051718;28;20043;-67
2022/06/15 13:18:46;;;;;;;4.72;2.40;;;28.40;54.70;;;;;;5048310;28;20044;-68
2022/06/15 13:21:22;;;;;;;5.35;2.90;;;28.60;54.00;;;;;;5033327;28;20041;-69
2022/06/15 13:23:59;;;;;;;4.80;2.67;;;28.70;55.70;;;;;;5048045;28;20047;-71
2022/06/15 13:26:27;;;;;;;4.65;2.92;;;28.90;51.90;;;;;;5029815;28;20067;-76
2022/06/15 13:28:58;;;;;;;5.85;2.95;;;29.10;53.80;;;;;;5036501;28;20392;-75
2022/06/15 13:31:43;;;;;;;5.32;2.90;;;29.30;54.00;;;;;;5038708;28;20060;-75
2022/06/15 13:34:36;;;;;;;4.30;2.65;;;29.30;51.60;;;;;;5047957;28;20034;-77